Big D — ZDDR2 — position and weather

sailwx.info

Track history (hours):
 
Tides and Currents Weather Stations Pressure Air Temp Water Temp Dewpoint Dewpoint Depression Visibility Wind Speed Wind Dir Waves Ship Positions

Big D

Last reported at 2015-Aug-31 03:32 UTC. Time now 2015-Sep-01 16:13 UTC.
Position N 37°26' W 000°48'.

Length 45 m; draft 2.5 m.

Type: Pleasure craft. MMSI: 236052000.

Date/timePositionNaut miles runAvg speedWind from/ knotsBaromVisibWave heightAir tempDewpointWater temp
2015-Aug-31 03:32N 37°26' W 000°48'1411.9
2015-Aug-31 02:20N 37°35' W 000°34'1011.8
2015-Aug-31 01:31N 37°43' W 000°27'13911.4
2015-Aug-30 13:22N 39°14' E 001°46'911.4
2015-Aug-30 12:33N 39°18' E 001°57'1211.6
2015-Aug-30 11:33N 39°22' E 002°11'1111.5
2015-Aug-30 10:33N 39°26' E 002°25'1110.9
2015-Aug-30 09:33N 39°32' E 002°37'2 2.3
2015-Aug-30 08:31N 39°34' E 002°38'0 0.0
2015-Aug-30 07:31N 39°34' E 002°38'0 0.0
2015-Aug-30 06:31N 39°34' E 002°38'0 0.0
2015-Aug-30 05:31N 39°34' E 002°38'0 0.0
2015-Aug-30 04:31N 39°34' E 002°38'0 0.0
2015-Aug-30 03:31N 39°34' E 002°38'0 0.0
2015-Aug-30 02:31N 39°34' E 002°38'0 0.0
2015-Aug-30 01:31N 39°34' E 002°38'0 0.0
2015-Aug-30 00:31N 39°34' E 002°38'0 0.0
2015-Aug-29 23:31N 39°34' E 002°38'0 0.0
2015-Aug-29 22:31N 39°34' E 002°38'0 0.0
2015-Aug-29 21:31N 39°34' E 002°38'0 0.0
2015-Aug-29 20:31N 39°34' E 002°38'0 0.0
2015-Aug-29 19:31N 39°34' E 002°38'0 0.0
2015-Aug-29 18:31N 39°34' E 002°38'0 0.0
2015-Aug-29 17:31N 39°34' E 002°38'0 0.0
2015-Aug-29 16:31N 39°34' E 002°38'0 0.0
2015-Aug-29 15:25N 39°34' E 002°38'0 0.0
2015-Aug-29 14:31N 39°34' E 002°38'0 0.0
2015-Aug-29 13:31N 39°34' E 002°38'0 0.0
2015-Aug-29 12:31N 39°34' E 002°38'0 0.0
2015-Aug-29 11:31N 39°34' E 002°38'0 0.0
2015-Aug-29 10:31N 39°34' E 002°38'0 0.0
2015-Aug-29 09:31N 39°34' E 002°38'0 0.0
2015-Aug-29 08:31N 39°34' E 002°38'0 0.0
2015-Aug-29 07:31N 39°34' E 002°38'0 0.0
2015-Aug-29 06:31N 39°34' E 002°38'0 0.0
2015-Aug-29 05:31N 39°34' E 002°38'0 0.0
2015-Aug-29 04:31N 39°34' E 002°38'0 0.0
2015-Aug-29 03:31N 39°34' E 002°38'0 0.0
2015-Aug-29 02:31N 39°34' E 002°38'0 0.0
2015-Aug-29 01:31N 39°34' E 002°38'0 0.0
2015-Aug-29 00:31N 39°34' E 002°38'0 0.0
2015-Aug-28 23:31N 39°34' E 002°38'0 0.0
2015-Aug-28 22:31N 39°34' E 002°38'0 0.0
2015-Aug-28 21:31N 39°34' E 002°38'0 0.0
2015-Aug-28 20:31N 39°34' E 002°38'0 0.0
2015-Aug-28 19:31N 39°34' E 002°38'0 0.0
2015-Aug-28 18:31N 39°34' E 002°38'0 0.0
2015-Aug-28 17:31N 39°34' E 002°38'0 0.0
2015-Aug-28 16:31N 39°34' E 002°38'0 0.0
2015-Aug-28 15:28N 39°34' E 002°38'0 0.0
2015-Aug-28 14:31N 39°34' E 002°38'0 0.0
2015-Aug-28 13:31N 39°34' E 002°38'0 0.0
2015-Aug-28 12:31N 39°34' E 002°38'0 0.0
2015-Aug-28 11:31N 39°34' E 002°38'0 0.0
2015-Aug-28 10:31N 39°34' E 002°38'0 0.0
2015-Aug-28 09:31N 39°34' E 002°38'0 0.0
2015-Aug-28 08:31N 39°34' E 002°38'0 0.0
2015-Aug-28 07:31N 39°34' E 002°38'0 0.0
2015-Aug-28 06:31N 39°34' E 002°38'0 0.0
2015-Aug-28 05:31N 39°34' E 002°38'0 0.0
2015-Aug-28 04:31N 39°34' E 002°38'0 0.0
2015-Aug-28 03:31N 39°34' E 002°38'0 0.0
2015-Aug-28 02:31N 39°34' E 002°38'0 0.0
2015-Aug-28 01:31N 39°34' E 002°38'0 0.0
2015-Aug-28 00:31N 39°34' E 002°38'0 0.0
2015-Aug-27 23:31N 39°34' E 002°38'0 0.0
2015-Aug-27 22:31N 39°34' E 002°38'0 0.0
2015-Aug-27 21:31N 39°34' E 002°38'0 0.0
2015-Aug-27 20:31N 39°34' E 002°38'0 0.0
2015-Aug-27 19:31N 39°34' E 002°38'0 0.0
2015-Aug-27 18:33N 39°34' E 002°38'4 4.5
2015-Aug-27 17:34N 39°30' E 002°41'1110.7
2015-Aug-27 16:33N 39°21' E 002°49'1111.1
2015-Aug-27 15:34N 39°16' E 003°01'1210.3
2015-Aug-27 14:22N 39°21' E 003°16'59 2.4
2015-Aug-26 14:04N 39°58' E 004°16'21 0.8
2015-Aug-25 12:09N 39°56' E 003°49'  
2015-Aug-21 10:09N 39°51' E 002°46'5 7.7
2015-Aug-21 09:33N 39°48' E 002°41'1 0.6
2015-Aug-21 08:33N 39°48' E 002°42'0 0.0
2015-Aug-21 07:33N 39°48' E 002°42'0 0.0
2015-Aug-21 06:33N 39°48' E 002°42'0 0.0
2015-Aug-21 05:33N 39°48' E 002°42'0 0.0
2015-Aug-21 04:33N 39°48' E 002°42'0 0.0
2015-Aug-21 03:33N 39°48' E 002°42'  
Track history (hours):
 
Tides and Currents Weather Stations Pressure Air Temp Water Temp Dewpoint Dewpoint Depression Visibility Wind Speed Wind Dir Waves Ship Positions

Big D

Last reported at 2015-Aug-31 03:32 UTC. Time now 2015-Sep-01 16:13 UTC.
Position N 37°26' W 000°48'.

Length 45 m; draft 2.5 m.

Type: Pleasure craft. MMSI: 236052000.

Date/timePositionNaut miles runAvg speedWind from/ knotsBaromVisibWave heightAir tempDewpointWater temp
2015-Aug-31 03:32N 37°26' W 000°48'1411.9
2015-Aug-31 02:20N 37°35' W 000°34'1011.8
2015-Aug-31 01:31N 37°43' W 000°27'13911.4
2015-Aug-30 13:22N 39°14' E 001°46'911.4
2015-Aug-30 12:33N 39°18' E 001°57'1211.6
2015-Aug-30 11:33N 39°22' E 002°11'1111.5
2015-Aug-30 10:33N 39°26' E 002°25'1110.9
2015-Aug-30 09:33N 39°32' E 002°37'2 2.3
2015-Aug-30 08:31N 39°34' E 002°38'0 0.0
2015-Aug-30 07:31N 39°34' E 002°38'0 0.0
2015-Aug-30 06:31N 39°34' E 002°38'0 0.0
2015-Aug-30 05:31N 39°34' E 002°38'0 0.0
2015-Aug-30 04:31N 39°34' E 002°38'0 0.0
2015-Aug-30 03:31N 39°34' E 002°38'0 0.0
2015-Aug-30 02:31N 39°34' E 002°38'0 0.0
2015-Aug-30 01:31N 39°34' E 002°38'0 0.0
2015-Aug-30 00:31N 39°34' E 002°38'0 0.0
2015-Aug-29 23:31N 39°34' E 002°38'0 0.0
2015-Aug-29 22:31N 39°34' E 002°38'0 0.0
2015-Aug-29 21:31N 39°34' E 002°38'0 0.0
2015-Aug-29 20:31N 39°34' E 002°38'0 0.0
2015-Aug-29 19:31N 39°34' E 002°38'0 0.0
2015-Aug-29 18:31N 39°34' E 002°38'0 0.0
2015-Aug-29 17:31N 39°34' E 002°38'0 0.0
2015-Aug-29 16:31N 39°34' E 002°38'0 0.0
2015-Aug-29 15:25N 39°34' E 002°38'0 0.0
2015-Aug-29 14:31N 39°34' E 002°38'0 0.0
2015-Aug-29 13:31N 39°34' E 002°38'0 0.0
2015-Aug-29 12:31N 39°34' E 002°38'0 0.0
2015-Aug-29 11:31N 39°34' E 002°38'0 0.0
2015-Aug-29 10:31N 39°34' E 002°38'0 0.0
2015-Aug-29 09:31N 39°34' E 002°38'0 0.0
2015-Aug-29 08:31N 39°34' E 002°38'0 0.0
2015-Aug-29 07:31N 39°34' E 002°38'0 0.0
2015-Aug-29 06:31N 39°34' E 002°38'0 0.0
2015-Aug-29 05:31N 39°34' E 002°38'0 0.0
2015-Aug-29 04:31N 39°34' E 002°38'0 0.0
2015-Aug-29 03:31N 39°34' E 002°38'0 0.0
2015-Aug-29 02:31N 39°34' E 002°38'0 0.0
2015-Aug-29 01:31N 39°34' E 002°38'0 0.0
2015-Aug-29 00:31N 39°34' E 002°38'0 0.0
2015-Aug-28 23:31N 39°34' E 002°38'0 0.0
2015-Aug-28 22:31N 39°34' E 002°38'0 0.0
2015-Aug-28 21:31N 39°34' E 002°38'0 0.0
2015-Aug-28 20:31N 39°34' E 002°38'0 0.0
2015-Aug-28 19:31N 39°34' E 002°38'0 0.0
2015-Aug-28 18:31N 39°34' E 002°38'0 0.0
2015-Aug-28 17:31N 39°34' E 002°38'0 0.0
2015-Aug-28 16:31N 39°34' E 002°38'0 0.0
2015-Aug-28 15:28N 39°34' E 002°38'0 0.0
2015-Aug-28 14:31N 39°34' E 002°38'0 0.0
2015-Aug-28 13:31N 39°34' E 002°38'0 0.0
2015-Aug-28 12:31N 39°34' E 002°38'0 0.0
2015-Aug-28 11:31N 39°34' E 002°38'0 0.0
2015-Aug-28 10:31N 39°34' E 002°38'0 0.0
2015-Aug-28 09:31N 39°34' E 002°38'0 0.0
2015-Aug-28 08:31N 39°34' E 002°38'0 0.0
2015-Aug-28 07:31N 39°34' E 002°38'0 0.0
2015-Aug-28 06:31N 39°34' E 002°38'0 0.0
2015-Aug-28 05:31N 39°34' E 002°38'0 0.0
2015-Aug-28 04:31N 39°34' E 002°38'0 0.0
2015-Aug-28 03:31N 39°34' E 002°38'0 0.0
2015-Aug-28 02:31N 39°34' E 002°38'0 0.0
2015-Aug-28 01:31N 39°34' E 002°38'0 0.0
2015-Aug-28 00:31N 39°34' E 002°38'0 0.0
2015-Aug-27 23:31N 39°34' E 002°38'0 0.0
2015-Aug-27 22:31N 39°34' E 002°38'0 0.0
2015-Aug-27 21:31N 39°34' E 002°38'0 0.0
2015-Aug-27 20:31N 39°34' E 002°38'0 0.0
2015-Aug-27 19:31N 39°34' E 002°38'0 0.0
2015-Aug-27 18:33N 39°34' E 002°38'4 4.5
2015-Aug-27 17:34N 39°30' E 002°41'1110.7
2015-Aug-27 16:33N 39°21' E 002°49'1111.1
2015-Aug-27 15:34N 39°16' E 003°01'1210.3
2015-Aug-27 14:22N 39°21' E 003°16'59 2.4
2015-Aug-26 14:04N 39°58' E 004°16'21 0.8
2015-Aug-25 12:09N 39°56' E 003°49'  
2015-Aug-21 10:09N 39°51' E 002°46'5 7.7
2015-Aug-21 09:33N 39°48' E 002°41'1 0.6
2015-Aug-21 08:33N 39°48' E 002°42'0 0.0
2015-Aug-21 07:33N 39°48' E 002°42'0 0.0
2015-Aug-21 06:33N 39°48' E 002°42'0 0.0
2015-Aug-21 05:33N 39°48' E 002°42'0 0.0
2015-Aug-21 04:33N 39°48' E 002°42'0 0.0
2015-Aug-21 03:33N 39°48' E 002°42'  

Dump ship's entire track history